Mountlake Terrace, WA (98043)

5:13 AM PST on December 27, 2014 (GMT -0800)
Southwest Brier. Near King, Sno. Co. line | Change Station
CLOSE
Current Station
Personal Weather Station
Location: Brier, WA
Elevation: 320 ft
Nearby Weather Stations

Elev 320 ft 47.78 °N, 122.28 °W | Updated 10 minutes ago

Rain
Rain
40.5 °F
Feels Like 40 °F
N
0.0
Wind Variable Wind from East
Gusts 2.0 mph

Today
High -- | Low -- °F
--% Chance of Precip.
Yesterday
High -- | Low -- °F
Precip. -- in
7:57 AM 4:23 PM
Waxing Crescent, 36% visible
Pressure 30.18 in
Visibility 9.0 miles
Clouds Mostly Cloudy 400 ft
Overcast 1100 ft
Windchill 40 °F
Dew Point 39 °F
Humidity 94%
Rainfall -999.00 in
Snow Depth Not available.
UV 0 out of 12
Pollen .50 out of 12
Air Quality Not available.
Flu Activity Not available.
SPECI KPAE 271303Z AUTO 15008KT 9SM -RA BKN004 OVC011 04/03 A3018 RMK AO2 CIG 003V007 P0000 T00440033

More Conditions Fewer Conditions

Pressure 30.18 in
Visibility 9.0 miles
Clouds Mostly Cloudy 400 ft
Overcast 1100 ft
Windchill 40 °F
Dew Point 39 °F
Humidity 94%
Rainfall -999.00 in
Snow Depth Not available.
UV 0 out of 12
Pollen .50 out of 12
Air Quality Not available.
Flu Activity Not available.
SPECI KPAE 271303Z AUTO 15008KT 9SM -RA BKN004 OVC011 04/03 A3018 RMK AO2 CIG 003V007 P0000 T00440033

More Conditions Fewer Conditions

10-Day Weather Forecast

Almanac

Astronomy

Dec. 27, 2014 Rise Set
Actual Time
Civil Twilight
Nautical Twilight
Astronomical Twilight
Moon
Length of Visible Light
Length of Day
Tomorrow will be .
, % of the Moon is Illuminated

Today's Extremes

State Highs State Lows

Community

WunderPhotos

Upload Photos

1,780,890 photos uploaded!

WunderBlogs® & News

Nearby

Air Quality

  Air Quality AQ Index Pollutant
Not available.

Snow Depth

Station Depth Elevation

Earthquake Activity

City Distance Mag. Time & Date
Minimum magnitude displayed is 2.5.

Coastal Water Temperatures

Place Temperature

Nearby Weather Stations